sensor_id;sensor_type;location;lat;lon;timestamp;temperature;humidity
66722;SHT31;53633;49.932;10.884;2023-04-24T00:01:47;11.87;85.22
66722;SHT31;53633;49.932;10.884;2023-04-24T00:04:14;11.87;85.54
66722;SHT31;53633;49.932;10.884;2023-04-24T00:06:41;12.05;84.99
66722;SHT31;53633;49.932;10.884;2023-04-24T00:09:08;12.25;83.99
66722;SHT31;53633;49.932;10.884;2023-04-24T00:11:35;12.24;84.50
66722;SHT31;53633;49.932;10.884;2023-04-24T00:14:03;12.09;85.15
66722;SHT31;53633;49.932;10.884;2023-04-24T00:16:29;11.85;85.92
66722;SHT31;53633;49.932;10.884;2023-04-24T00:18:56;11.75;86.92
66722;SHT31;53633;49.932;10.884;2023-04-24T00:21:23;11.77;86.31
66722;SHT31;53633;49.932;10.884;2023-04-24T00:23:49;11.78;86.69
66722;SHT31;53633;49.932;10.884;2023-04-24T00:26:16;11.92;85.62
66722;SHT31;53633;49.932;10.884;2023-04-24T00:28:43;12.02;85.00
66722;SHT31;53633;49.932;10.884;2023-04-24T00:31:11;11.89;85.71
66722;SHT31;53633;49.932;10.884;2023-04-24T00:33:38;11.91;85.24
66722;SHT31;53633;49.932;10.884;2023-04-24T00:36:05;11.82;85.72
66722;SHT31;53633;49.932;10.884;2023-04-24T00:38:32;11.59;86.92
66722;SHT31;53633;49.932;10.884;2023-04-24T00:40:58;11.36;87.93
66722;SHT31;53633;49.932;10.884;2023-04-24T00:43:25;11.40;88.24
66722;SHT31;53633;49.932;10.884;2023-04-24T00:45:52;11.20;89.07
66722;SHT31;53633;49.932;10.884;2023-04-24T00:48:20;11.67;87.53
66722;SHT31;53633;49.932;10.884;2023-04-24T00:50:47;11.75;87.37
66722;SHT31;53633;49.932;10.884;2023-04-24T00:53:14;11.69;87.95
66722;SHT31;53633;49.932;10.884;2023-04-24T00:55:40;11.64;88.33
66722;SHT31;53633;49.932;10.884;2023-04-24T00:58:07;11.73;88.11
66722;SHT31;53633;49.932;10.884;2023-04-24T01:00:34;11.69;88.28
66722;SHT31;53633;49.932;10.884;2023-04-24T01:03:04;11.44;89.21
66722;SHT31;53633;49.932;10.884;2023-04-24T01:05:33;11.67;88.40
66722;SHT31;53633;49.932;10.884;2023-04-24T01:08:01;11.71;88.17
66722;SHT31;53633;49.932;10.884;2023-04-24T01:10:29;11.54;88.74
66722;SHT31;53633;49.932;10.884;2023-04-24T01:12:57;11.43;88.94
66722;SHT31;53633;49.932;10.884;2023-04-24T01:15:24;11.34;89.55
66722;SHT31;53633;49.932;10.884;2023-04-24T01:17:51;11.32;89.52
66722;SHT31;53633;49.932;10.884;2023-04-24T01:20:18;11.42;89.35
66722;SHT31;53633;49.932;10.884;2023-04-24T01:22:46;11.81;88.02
66722;SHT31;53633;49.932;10.884;2023-04-24T01:25:13;11.78;87.50
66722;SHT31;53633;49.932;10.884;2023-04-24T01:27:39;11.70;87.78
66722;SHT31;53633;49.932;10.884;2023-04-24T01:30:08;11.88;86.99
66722;SHT31;53633;49.932;10.884;2023-04-24T01:32:36;11.77;86.92
66722;SHT31;53633;49.932;10.884;2023-04-24T01:35:04;11.42;88.06
66722;SHT31;53633;49.932;10.884;2023-04-24T01:37:30;11.39;88.57
66722;SHT31;53633;49.932;10.884;2023-04-24T01:39:59;11.30;88.98
66722;SHT31;53633;49.932;10.884;2023-04-24T01:42:26;11.26;89.24
66722;SHT31;53633;49.932;10.884;2023-04-24T01:44:52;11.54;88.26
66722;SHT31;53633;49.932;10.884;2023-04-24T01:47:20;11.63;87.62
66722;SHT31;53633;49.932;10.884;2023-04-24T01:49:47;11.54;87.78
66722;SHT31;53633;49.932;10.884;2023-04-24T01:52:14;11.37;88.34
66722;SHT31;53633;49.932;10.884;2023-04-24T01:54:41;11.33;88.88
66722;SHT31;53633;49.932;10.884;2023-04-24T01:57:09;11.36;88.74
66722;SHT31;53633;49.932;10.884;2023-04-24T01:59:36;11.36;88.79
66722;SHT31;53633;49.932;10.884;2023-04-24T02:02:03;11.23;88.58
66722;SHT31;53633;49.932;10.884;2023-04-24T02:04:29;11.18;89.22
66722;SHT31;53633;49.932;10.884;2023-04-24T02:06:56;11.18;89.18
66722;SHT31;53633;49.932;10.884;2023-04-24T02:09:23;11.23;89.15
66722;SHT31;53633;49.932;10.884;2023-04-24T02:11:49;11.27;88.72
66722;SHT31;53633;49.932;10.884;2023-04-24T02:14:17;11.49;87.92
66722;SHT31;53633;49.932;10.884;2023-04-24T02:16:44;11.61;87.35
66722;SHT31;53633;49.932;10.884;2023-04-24T02:19:11;11.47;87.17
66722;SHT31;53633;49.932;10.884;2023-04-24T02:21:37;11.73;86.46
66722;SHT31;53633;49.932;10.884;2023-04-24T02:24:04;11.73;86.11
66722;SHT31;53633;49.932;10.884;2023-04-24T02:26:31;11.73;86.05
66722;SHT31;53633;49.932;10.884;2023-04-24T02:28:57;11.53;87.05
66722;SHT31;53633;49.932;10.884;2023-04-24T02:31:25;11.37;87.80
66722;SHT31;53633;49.932;10.884;2023-04-24T02:33:52;11.24;87.89
66722;SHT31;53633;49.932;10.884;2023-04-24T02:36:19;11.24;88.11
66722;SHT31;53633;49.932;10.884;2023-04-24T02:38:45;11.19;88.41
66722;SHT31;53633;49.932;10.884;2023-04-24T02:41:12;11.27;88.45
66722;SHT31;53633;49.932;10.884;2023-04-24T02:43:39;11.29;88.73
66722;SHT31;53633;49.932;10.884;2023-04-24T02:46:05;11.37;88.20
66722;SHT31;53633;49.932;10.884;2023-04-24T02:48:34;11.37;88.34
66722;SHT31;53633;49.932;10.884;2023-04-24T02:51:00;11.44;88.33
66722;SHT31;53633;49.932;10.884;2023-04-24T02:53:27;11.24;88.99
66722;SHT31;53633;49.932;10.884;2023-04-24T02:55:54;11.18;89.29
66722;SHT31;53633;49.932;10.884;2023-04-24T02:58:20;11.12;89.66
66722;SHT31;53633;49.932;10.884;2023-04-24T03:00:47;11.06;89.86
66722;SHT31;53633;49.932;10.884;2023-04-24T03:03:14;11.11;89.92
66722;SHT31;53633;49.932;10.884;2023-04-24T03:05:42;11.20;89.63
66722;SHT31;53633;49.932;10.884;2023-04-24T03:08:09;11.15;89.58
66722;SHT31;53633;49.932;10.884;2023-04-24T03:10:36;11.22;89.23
66722;SHT31;53633;49.932;10.884;2023-04-24T03:13:02;11.13;89.13
66722;SHT31;53633;49.932;10.884;2023-04-24T03:15:29;11.11;89.62
66722;SHT31;53633;49.932;10.884;2023-04-24T03:17:55;11.13;89.29
66722;SHT31;53633;49.932;10.884;2023-04-24T03:20:22;11.16;88.74
66722;SHT31;53633;49.932;10.884;2023-04-24T03:22:50;11.12;88.82
66722;SHT31;53633;49.932;10.884;2023-04-24T03:25:17;11.09;88.74
66722;SHT31;53633;49.932;10.884;2023-04-24T03:27:44;11.11;88.38
66722;SHT31;53633;49.932;10.884;2023-04-24T03:30:11;11.06;88.46
66722;SHT31;53633;49.932;10.884;2023-04-24T03:32:37;11.04;88.49
66722;SHT31;53633;49.932;10.884;2023-04-24T03:35:05;10.94;88.65
66722;SHT31;53633;49.932;10.884;2023-04-24T03:37:32;10.88;88.89
66722;SHT31;53633;49.932;10.884;2023-04-24T03:40:00;10.92;88.48
66722;SHT31;53633;49.932;10.884;2023-04-24T03:42:26;10.85;88.51
66722;SHT31;53633;49.932;10.884;2023-04-24T03:44:53;10.84;88.08
66722;SHT31;53633;49.932;10.884;2023-04-24T03:47:20;10.78;88.41
66722;SHT31;53633;49.932;10.884;2023-04-24T03:49:46;10.96;87.17
66722;SHT31;53633;49.932;10.884;2023-04-24T03:52:13;10.88;87.50
66722;SHT31;53633;49.932;10.884;2023-04-24T03:54:40;10.81;87.53
66722;SHT31;53633;49.932;10.884;2023-04-24T03:57:08;10.81;87.47
66722;SHT31;53633;49.932;10.884;2023-04-24T03:59:34;10.77;87.64
66722;SHT31;53633;49.932;10.884;2023-04-24T04:02:01;10.75;87.80
66722;SHT31;53633;49.932;10.884;2023-04-24T04:04:28;10.79;87.72
66722;SHT31;53633;49.932;10.884;2023-04-24T04:06:55;10.81;87.32
66722;SHT31;53633;49.932;10.884;2023-04-24T04:09:21;10.81;87.50
66722;SHT31;53633;49.932;10.884;2023-04-24T04:11:48;10.82;87.00
66722;SHT31;53633;49.932;10.884;2023-04-24T04:14:16;10.85;86.79
66722;SHT31;53633;49.932;10.884;2023-04-24T04:16:42;10.84;86.26
66722;SHT31;53633;49.932;10.884;2023-04-24T04:19:09;10.84;86.23
66722;SHT31;53633;49.932;10.884;2023-04-24T04:21:36;10.89;86.19
66722;SHT31;53633;49.932;10.884;2023-04-24T04:24:02;10.92;86.02
66722;SHT31;53633;49.932;10.884;2023-04-24T04:26:29;10.95;86.00
66722;SHT31;53633;49.932;10.884;2023-04-24T04:28:56;10.95;85.65
66722;SHT31;53633;49.932;10.884;2023-04-24T04:31:23;10.98;85.50
66722;SHT31;53633;49.932;10.884;2023-04-24T04:33:50;11.02;85.56
66722;SHT31;53633;49.932;10.884;2023-04-24T04:36:17;11.13;85.23
66722;SHT31;53633;49.932;10.884;2023-04-24T04:38:43;11.19;84.77
66722;SHT31;53633;49.932;10.884;2023-04-24T04:41:10;11.26;84.44
66722;SHT31;53633;49.932;10.884;2023-04-24T04:43:37;11.15;84.84
66722;SHT31;53633;49.932;10.884;2023-04-24T04:46:03;11.11;84.98
66722;SHT31;53633;49.932;10.884;2023-04-24T04:48:31;11.08;84.83
66722;SHT31;53633;49.932;10.884;2023-04-24T04:50:58;10.99;85.07
66722;SHT31;53633;49.932;10.884;2023-04-24T04:53:25;10.99;85.08
66722;SHT31;53633;49.932;10.884;2023-04-24T04:55:52;11.02;85.50
66722;SHT31;53633;49.932;10.884;2023-04-24T04:58:18;11.09;84.94
66722;SHT31;53633;49.932;10.884;2023-04-24T05:00:45;11.11;84.54
66722;SHT31;53633;49.932;10.884;2023-04-24T05:03:12;11.29;84.07
66722;SHT31;53633;49.932;10.884;2023-04-24T05:05:45;11.43;83.38
66722;SHT31;53633;49.932;10.884;2023-04-24T05:08:12;11.44;83.40
66722;SHT31;53633;49.932;10.884;2023-04-24T05:10:52;11.54;83.36
66722;SHT31;53633;49.932;10.884;2023-04-24T05:13:19;11.60;82.76
66722;SHT31;53633;49.932;10.884;2023-04-24T05:15:57;11.57;82.74
66722;SHT31;53633;49.932;10.884;2023-04-24T05:18:24;11.57;82.40
66722;SHT31;53633;49.932;10.884;2023-04-24T05:20:52;11.49;82.56
66722;SHT31;53633;49.932;10.884;2023-04-24T05:23:19;11.50;83.10
66722;SHT31;53633;49.932;10.884;2023-04-24T05:25:45;11.59;82.88
66722;SHT31;53633;49.932;10.884;2023-04-24T05:28:12;11.53;83.11
66722;SHT31;53633;49.932;10.884;2023-04-24T05:30:39;11.53;82.98
66722;SHT31;53633;49.932;10.884;2023-04-24T05:33:05;11.51;83.39
66722;SHT31;53633;49.932;10.884;2023-04-24T05:35:32;11.64;82.80
66722;SHT31;53633;49.932;10.884;2023-04-24T05:38:00;11.82;82.40
66722;SHT31;53633;49.932;10.884;2023-04-24T05:40:26;11.67;82.55
66722;SHT31;53633;49.932;10.884;2023-04-24T05:42:53;11.60;83.41
66722;SHT31;53633;49.932;10.884;2023-04-24T05:45:20;11.51;83.68
66722;SHT31;53633;49.932;10.884;2023-04-24T05:47:46;11.70;83.21
66722;SHT31;53633;49.932;10.884;2023-04-24T05:50:13;11.61;83.66
66722;SHT31;53633;49.932;10.884;2023-04-24T05:52:40;11.54;83.44
66722;SHT31;53633;49.932;10.884;2023-04-24T05:55:08;11.60;83.10
66722;SHT31;53633;49.932;10.884;2023-04-24T05:57:35;11.63;83.34
66722;SHT31;53633;49.932;10.884;2023-04-24T06:00:02;11.61;82.42
66722;SHT31;53633;49.932;10.884;2023-04-24T06:02:28;11.64;82.59
66722;SHT31;53633;49.932;10.884;2023-04-24T06:04:55;11.78;82.41
66722;SHT31;53633;49.932;10.884;2023-04-24T06:07:22;12.01;81.91
66722;SHT31;53633;49.932;10.884;2023-04-24T06:09:49;11.94;82.35
66722;SHT31;53633;49.932;10.884;2023-04-24T06:12:17;11.98;82.21
66722;SHT31;53633;49.932;10.884;2023-04-24T06:14:44;12.02;82.36
66722;SHT31;53633;49.932;10.884;2023-04-24T06:17:10;12.05;82.40
66722;SHT31;53633;49.932;10.884;2023-04-24T06:19:37;11.99;82.41
66722;SHT31;53633;49.932;10.884;2023-04-24T06:22:04;12.01;81.09
66722;SHT31;53633;49.932;10.884;2023-04-24T06:24:30;12.11;80.35
66722;SHT31;53633;49.932;10.884;2023-04-24T06:26:57;12.14;79.58
66722;SHT31;53633;49.932;10.884;2023-04-24T06:29:25;12.26;78.85
66722;SHT31;53633;49.932;10.884;2023-04-24T06:31:52;12.37;77.74
66722;SHT31;53633;49.932;10.884;2023-04-24T06:34:18;12.36;76.19
66722;SHT31;53633;49.932;10.884;2023-04-24T06:36:46;12.30;76.65
66722;SHT31;53633;49.932;10.884;2023-04-24T06:39:13;12.35;76.12
66722;SHT31;53633;49.932;10.884;2023-04-24T06:41:40;12.32;75.74
66722;SHT31;53633;49.932;10.884;2023-04-24T06:44:07;12.33;76.10
66722;SHT31;53633;49.932;10.884;2023-04-24T06:46:35;12.28;75.86
66722;SHT31;53633;49.932;10.884;2023-04-24T06:49:01;12.52;75.90
66722;SHT31;53633;49.932;10.884;2023-04-24T06:51:28;12.57;73.86
66722;SHT31;53633;49.932;10.884;2023-04-24T06:53:55;12.67;72.38
66722;SHT31;53633;49.932;10.884;2023-04-24T06:56:22;12.73;72.74
66722;SHT31;53633;49.932;10.884;2023-04-24T06:58:48;12.70;71.83
66722;SHT31;53633;49.932;10.884;2023-04-24T07:01:15;12.66;71.87
66722;SHT31;53633;49.932;10.884;2023-04-24T07:03:43;12.83;71.49
66722;SHT31;53633;49.932;10.884;2023-04-24T07:06:10;13.01;69.56
66722;SHT31;53633;49.932;10.884;2023-04-24T07:08:37;12.91;69.09
66722;SHT31;53633;49.932;10.884;2023-04-24T07:11:04;13.05;68.81
66722;SHT31;53633;49.932;10.884;2023-04-24T07:13:31;13.01;68.61
66722;SHT31;53633;49.932;10.884;2023-04-24T07:15:57;13.36;68.22
66722;SHT31;53633;49.932;10.884;2023-04-24T07:18:24;13.34;67.52
66722;SHT31;53633;49.932;10.884;2023-04-24T07:20:52;13.50;67.14
66722;SHT31;53633;49.932;10.884;2023-04-24T07:23:19;13.55;67.18
66722;SHT31;53633;49.932;10.884;2023-04-24T07:25:46;13.65;67.38
66722;SHT31;53633;49.932;10.884;2023-04-24T07:28:12;14.42;65.46
66722;SHT31;53633;49.932;10.884;2023-04-24T07:30:39;14.56;64.27
66722;SHT31;53633;49.932;10.884;2023-04-24T07:33:06;14.79;63.18
66722;SHT31;53633;49.932;10.884;2023-04-24T07:35:33;15.06;61.94
66722;SHT31;53633;49.932;10.884;2023-04-24T07:38:01;15.04;61.59
66722;SHT31;53633;49.932;10.884;2023-04-24T07:40:27;14.58;62.22
66722;SHT31;53633;49.932;10.884;2023-04-24T07:42:54;14.38;62.21
66722;SHT31;53633;49.932;10.884;2023-04-24T07:45:21;14.79;62.02
66722;SHT31;53633;49.932;10.884;2023-04-24T07:47:47;15.16;60.44
66722;SHT31;53633;49.932;10.884;2023-04-24T07:50:14;16.71;56.64
66722;SHT31;53633;49.932;10.884;2023-04-24T07:52:41;18.23;51.79
66722;SHT31;53633;49.932;10.884;2023-04-24T07:55:09;18.32;50.59
66722;SHT31;53633;49.932;10.884;2023-04-24T07:57:36;18.96;48.33
66722;SHT31;53633;49.932;10.884;2023-04-24T08:00:03;21.08;44.74
66722;SHT31;53633;49.932;10.884;2023-04-24T08:02:30;21.41;41.90
66722;SHT31;53633;49.932;10.884;2023-04-24T08:04:57;20.56;43.42
66722;SHT31;53633;49.932;10.884;2023-04-24T08:07:26;20.34;44.41
66722;SHT31;53633;49.932;10.884;2023-04-24T08:09:52;19.39;44.88
66722;SHT31;53633;49.932;10.884;2023-04-24T08:12:20;19.37;45.83
66722;SHT31;53633;49.932;10.884;2023-04-24T08:14:47;19.49;46.14
66722;SHT31;53633;49.932;10.884;2023-04-24T08:17:14;19.18;46.36
66722;SHT31;53633;49.932;10.884;2023-04-24T08:19:41;19.16;45.69
66722;SHT31;53633;49.932;10.884;2023-04-24T08:22:08;18.03;46.46
66722;SHT31;53633;49.932;10.884;2023-04-24T08:24:34;17.37;49.07
66722;SHT31;53633;49.932;10.884;2023-04-24T08:27:01;17.19;49.96
66722;SHT31;53633;49.932;10.884;2023-04-24T08:29:29;17.07;49.76
66722;SHT31;53633;49.932;10.884;2023-04-24T08:31:56;16.35;52.24
66722;SHT31;53633;49.932;10.884;2023-04-24T08:34:23;16.55;51.50
66722;SHT31;53633;49.932;10.884;2023-04-24T08:36:50;16.79;51.51
66722;SHT31;53633;49.932;10.884;2023-04-24T08:39:17;16.49;52.10
66722;SHT31;53633;49.932;10.884;2023-04-24T08:41:44;15.90;52.90
66722;SHT31;53633;49.932;10.884;2023-04-24T08:44:11;15.72;53.47
66722;SHT31;53633;49.932;10.884;2023-04-24T08:46:40;15.45;54.32
66722;SHT31;53633;49.932;10.884;2023-04-24T08:49:07;15.08;55.23
66722;SHT31;53633;49.932;10.884;2023-04-24T08:51:34;14.96;55.64
66722;SHT31;53633;49.932;10.884;2023-04-24T08:54:03;14.86;55.97
66722;SHT31;53633;49.932;10.884;2023-04-24T08:56:33;14.75;56.58
66722;SHT31;53633;49.932;10.884;2023-04-24T08:59:00;14.77;56.75
66722;SHT31;53633;49.932;10.884;2023-04-24T09:01:27;14.87;55.31
66722;SHT31;53633;49.932;10.884;2023-04-24T09:03:56;14.73;55.23
66722;SHT31;53633;49.932;10.884;2023-04-24T09:06:23;14.98;54.42
66722;SHT31;53633;49.932;10.884;2023-04-24T09:08:53;15.24;54.62
66722;SHT31;53633;49.932;10.884;2023-04-24T09:11:20;15.08;54.90
66722;SHT31;53633;49.932;10.884;2023-04-24T09:13:48;15.01;54.53
66722;SHT31;53633;49.932;10.884;2023-04-24T09:16:14;15.16;54.13
66722;SHT31;53633;49.932;10.884;2023-04-24T09:18:41;15.36;54.17
66722;SHT31;53633;49.932;10.884;2023-04-24T09:21:10;15.79;53.25
66722;SHT31;53633;49.932;10.884;2023-04-24T09:23:36;16.03;53.12
66722;SHT31;53633;49.932;10.884;2023-04-24T09:26:03;16.49;52.37
66722;SHT31;53633;49.932;10.884;2023-04-24T09:28:32;16.42;52.30
66722;SHT31;53633;49.932;10.884;2023-04-24T09:31:03;16.25;52.97
66722;SHT31;53633;49.932;10.884;2023-04-24T09:33:31;15.82;53.73
66722;SHT31;53633;49.932;10.884;2023-04-24T09:35:57;15.42;54.23
66722;SHT31;53633;49.932;10.884;2023-04-24T09:38:32;15.32;54.47
66722;SHT31;53633;49.932;10.884;2023-04-24T09:41:00;15.55;54.67
66722;SHT31;53633;49.932;10.884;2023-04-24T09:43:27;15.44;55.13
66722;SHT31;53633;49.932;10.884;2023-04-24T09:45:55;15.38;54.78
66722;SHT31;53633;49.932;10.884;2023-04-24T09:48:30;15.54;55.22
66722;SHT31;53633;49.932;10.884;2023-04-24T09:50:57;15.79;54.43
66722;SHT31;53633;49.932;10.884;2023-04-24T09:53:24;15.82;54.21
66722;SHT31;53633;49.932;10.884;2023-04-24T09:55:53;16.24;52.83
66722;SHT31;53633;49.932;10.884;2023-04-24T09:58:24;16.17;52.15
66722;SHT31;53633;49.932;10.884;2023-04-24T10:00:53;16.32;51.86
66722;SHT31;53633;49.932;10.884;2023-04-24T10:03:20;16.24;52.53
66722;SHT31;53633;49.932;10.884;2023-04-24T10:05:47;16.04;53.28
66722;SHT31;53633;49.932;10.884;2023-04-24T10:08:14;16.17;53.59
66722;SHT31;53633;49.932;10.884;2023-04-24T10:10:42;15.94;53.66
66722;SHT31;53633;49.932;10.884;2023-04-24T10:13:11;15.72;54.30
66722;SHT31;53633;49.932;10.884;2023-04-24T10:15:39;15.20;55.66
66722;SHT31;53633;49.932;10.884;2023-04-24T10:18:07;14.87;55.98
66722;SHT31;53633;49.932;10.884;2023-04-24T10:20:35;14.45;53.91
66722;SHT31;53633;49.932;10.884;2023-04-24T10:23:02;14.29;52.94
66722;SHT31;53633;49.932;10.884;2023-04-24T10:25:32;14.41;53.30
66722;SHT31;53633;49.932;10.884;2023-04-24T10:28:00;14.49;53.88
66722;SHT31;53633;49.932;10.884;2023-04-24T10:30:30;14.48;54.36
66722;SHT31;53633;49.932;10.884;2023-04-24T10:32:59;14.86;52.40
66722;SHT31;53633;49.932;10.884;2023-04-24T10:35:25;15.17;51.83
66722;SHT31;53633;49.932;10.884;2023-04-24T10:37:56;15.25;51.32
66722;SHT31;53633;49.932;10.884;2023-04-24T10:40:26;15.39;50.63
66722;SHT31;53633;49.932;10.884;2023-04-24T10:42:53;15.49;50.19
66722;SHT31;53633;49.932;10.884;2023-04-24T10:45:24;15.72;50.86
66722;SHT31;53633;49.932;10.884;2023-04-24T10:47:56;15.83;50.36
66722;SHT31;53633;49.932;10.884;2023-04-24T10:50:23;16.07;50.57
66722;SHT31;53633;49.932;10.884;2023-04-24T10:52:50;16.09;50.64
66722;SHT31;53633;49.932;10.884;2023-04-24T10:55:16;15.96;51.46
66722;SHT31;53633;49.932;10.884;2023-04-24T10:58:04;15.87;50.87
66722;SHT31;53633;49.932;10.884;2023-04-24T11:00:31;15.83;51.12
66722;SHT31;53633;49.932;10.884;2023-04-24T11:02:59;16.27;51.02
66722;SHT31;53633;49.932;10.884;2023-04-24T11:05:52;15.97;51.54
66722;SHT31;53633;49.932;10.884;2023-04-24T11:08:24;16.01;52.18
66722;SHT31;53633;49.932;10.884;2023-04-24T11:10:55;15.79;51.96
66722;SHT31;53633;49.932;10.884;2023-04-24T11:13:23;15.62;52.59
66722;SHT31;53633;49.932;10.884;2023-04-24T11:16:14;15.31;53.47
66722;SHT31;53633;49.932;10.884;2023-04-24T11:18:43;15.54;53.64
66722;SHT31;53633;49.932;10.884;2023-04-24T11:21:10;15.51;53.56
66722;SHT31;53633;49.932;10.884;2023-04-24T11:23:37;15.65;53.59
66722;SHT31;53633;49.932;10.884;2023-04-24T11:26:11;15.87;52.76
66722;SHT31;53633;49.932;10.884;2023-04-24T11:28:44;15.73;52.95
66722;SHT31;53633;49.932;10.884;2023-04-24T11:31:36;15.59;52.39
66722;SHT31;53633;49.932;10.884;2023-04-24T11:34:12;15.76;52.45
66722;SHT31;53633;49.932;10.884;2023-04-24T11:36:40;15.96;52.36
66722;SHT31;53633;49.932;10.884;2023-04-24T11:39:09;15.79;51.77
66722;SHT31;53633;49.932;10.884;2023-04-24T11:41:35;16.06;50.05
66722;SHT31;53633;49.932;10.884;2023-04-24T11:44:03;16.22;49.06
66722;SHT31;53633;49.932;10.884;2023-04-24T11:46:30;16.32;49.31
66722;SHT31;53633;49.932;10.884;2023-04-24T11:48:58;16.18;48.79
66722;SHT31;53633;49.932;10.884;2023-04-24T11:51:27;15.81;49.98
66722;SHT31;53633;49.932;10.884;2023-04-24T11:54:07;15.83;51.43
66722;SHT31;53633;49.932;10.884;2023-04-24T11:56:33;15.76;50.96
66722;SHT31;53633;49.932;10.884;2023-04-24T11:59:03;15.54;51.55
66722;SHT31;53633;49.932;10.884;2023-04-24T12:01:42;15.03;52.52
66722;SHT31;53633;49.932;10.884;2023-04-24T12:04:09;14.70;53.48
66722;SHT31;53633;49.932;10.884;2023-04-24T12:06:37;14.46;54.08
66722;SHT31;53633;49.932;10.884;2023-04-24T12:09:04;14.66;54.31
66722;SHT31;53633;49.932;10.884;2023-04-24T12:11:52;14.68;54.38
66722;SHT31;53633;49.932;10.884;2023-04-24T12:14:19;14.73;54.34
66722;SHT31;53633;49.932;10.884;2023-04-24T12:16:47;14.80;54.07
66722;SHT31;53633;49.932;10.884;2023-04-24T12:19:18;14.81;51.89
66722;SHT31;53633;49.932;10.884;2023-04-24T12:21:59;15.14;51.90
66722;SHT31;53633;49.932;10.884;2023-04-24T12:24:25;15.03;51.79
66722;SHT31;53633;49.932;10.884;2023-04-24T12:26:52;15.21;52.06
66722;SHT31;53633;49.932;10.884;2023-04-24T12:29:33;15.10;52.97
66722;SHT31;53633;49.932;10.884;2023-04-24T12:31:59;15.39;52.38
66722;SHT31;53633;49.932;10.884;2023-04-24T12:34:26;15.11;53.03
66722;SHT31;53633;49.932;10.884;2023-04-24T12:36:54;14.90;54.08
66722;SHT31;53633;49.932;10.884;2023-04-24T12:39:20;14.68;54.18
66722;SHT31;53633;49.932;10.884;2023-04-24T12:41:54;14.25;55.14
66722;SHT31;53633;49.932;10.884;2023-04-24T12:44:28;14.14;55.08
66722;SHT31;53633;49.932;10.884;2023-04-24T12:46:55;14.17;55.55
66722;SHT31;53633;49.932;10.884;2023-04-24T12:49:22;14.29;55.84
66722;SHT31;53633;49.932;10.884;2023-04-24T12:51:48;14.35;55.75
66722;SHT31;53633;49.932;10.884;2023-04-24T12:54:16;14.59;55.72
66722;SHT31;53633;49.932;10.884;2023-04-24T12:56:43;14.60;55.90
66722;SHT31;53633;49.932;10.884;2023-04-24T12:59:10;14.63;55.89
66722;SHT31;53633;49.932;10.884;2023-04-24T13:01:36;14.62;56.28
66722;SHT31;53633;49.932;10.884;2023-04-24T13:04:04;14.76;55.25
66722;SHT31;53633;49.932;10.884;2023-04-24T13:06:31;14.98;54.38
66722;SHT31;53633;49.932;10.884;2023-04-24T13:08:58;14.86;54.44
66722;SHT31;53633;49.932;10.884;2023-04-24T13:11:26;15.23;54.01
66722;SHT31;53633;49.932;10.884;2023-04-24T13:13:54;15.42;54.21
66722;SHT31;53633;49.932;10.884;2023-04-24T13:16:21;15.23;53.08
66722;SHT31;53633;49.932;10.884;2023-04-24T13:18:48;15.14;53.09
66722;SHT31;53633;49.932;10.884;2023-04-24T13:21:14;15.16;53.81
66722;SHT31;53633;49.932;10.884;2023-04-24T13:23:41;14.97;54.05
66722;SHT31;53633;49.932;10.884;2023-04-24T13:26:08;15.35;54.16
66722;SHT31;53633;49.932;10.884;2023-04-24T13:28:36;15.49;53.91
66722;SHT31;53633;49.932;10.884;2023-04-24T13:31:03;15.61;54.47
66722;SHT31;53633;49.932;10.884;2023-04-24T13:33:29;15.54;54.03
66722;SHT31;53633;49.932;10.884;2023-04-24T13:35:57;15.41;54.21
66722;SHT31;53633;49.932;10.884;2023-04-24T13:38:23;15.51;53.76
66722;SHT31;53633;49.932;10.884;2023-04-24T13:40:50;15.85;52.63
66722;SHT31;53633;49.932;10.884;2023-04-24T13:43:16;15.85;51.56
66722;SHT31;53633;49.932;10.884;2023-04-24T13:45:44;15.55;51.22
66722;SHT31;53633;49.932;10.884;2023-04-24T13:48:11;15.24;51.56
66722;SHT31;53633;49.932;10.884;2023-04-24T13:50:38;15.07;52.11
66722;SHT31;53633;49.932;10.884;2023-04-24T13:53:05;15.01;52.55
66722;SHT31;53633;49.932;10.884;2023-04-24T13:55:31;14.70;53.39
66722;SHT31;53633;49.932;10.884;2023-04-24T13:57:58;14.56;55.84
66722;SHT31;53633;49.932;10.884;2023-04-24T14:00:25;14.29;60.29
66722;SHT31;53633;49.932;10.884;2023-04-24T14:02:53;14.29;62.45
66722;SHT31;53633;49.932;10.884;2023-04-24T14:05:20;14.05;64.43
66722;SHT31;53633;49.932;10.884;2023-04-24T14:07:46;13.57;67.42
66722;SHT31;53633;49.932;10.884;2023-04-24T14:10:13;13.25;70.41
66722;SHT31;53633;49.932;10.884;2023-04-24T14:12:40;13.21;70.64
66722;SHT31;53633;49.932;10.884;2023-04-24T14:15:07;13.12;71.80
66722;SHT31;53633;49.932;10.884;2023-04-24T14:17:34;12.87;73.86
66722;SHT31;53633;49.932;10.884;2023-04-24T14:20:03;12.57;76.91
66722;SHT31;53633;49.932;10.884;2023-04-24T14:22:30;12.80;77.65
66722;SHT31;53633;49.932;10.884;2023-04-24T14:24:56;12.95;75.18
66722;SHT31;53633;49.932;10.884;2023-04-24T14:27:24;13.18;74.35
66722;SHT31;53633;49.932;10.884;2023-04-24T14:29:50;13.28;73.58
66722;SHT31;53633;49.932;10.884;2023-04-24T14:32:17;13.22;72.86
66722;SHT31;53633;49.932;10.884;2023-04-24T14:34:44;13.26;73.94
66722;SHT31;53633;49.932;10.884;2023-04-24T14:37:12;13.23;73.58
66722;SHT31;53633;49.932;10.884;2023-04-24T14:39:38;13.04;74.56
66722;SHT31;53633;49.932;10.884;2023-04-24T14:42:05;13.19;75.05
66722;SHT31;53633;49.932;10.884;2023-04-24T14:44:32;13.40;73.87
66722;SHT31;53633;49.932;10.884;2023-04-24T14:46:58;13.77;72.14
66722;SHT31;53633;49.932;10.884;2023-04-24T14:49:25;13.78;71.11
66722;SHT31;53633;49.932;10.884;2023-04-24T14:51:52;13.93;73.31
66722;SHT31;53633;49.932;10.884;2023-04-24T14:54:20;13.97;70.90
66722;SHT31;53633;49.932;10.884;2023-04-24T14:56:47;13.81;70.53
66722;SHT31;53633;49.932;10.884;2023-04-24T14:59:14;13.76;70.96
66722;SHT31;53633;49.932;10.884;2023-04-24T15:01:41;13.59;69.99
66722;SHT31;53633;49.932;10.884;2023-04-24T15:04:08;13.69;70.04
66722;SHT31;53633;49.932;10.884;2023-04-24T15:06:34;13.65;69.81
66722;SHT31;53633;49.932;10.884;2023-04-24T15:09:01;13.84;67.91
66722;SHT31;53633;49.932;10.884;2023-04-24T15:11:29;13.91;67.64
66722;SHT31;53633;49.932;10.884;2023-04-24T15:13:56;13.95;66.99
66722;SHT31;53633;49.932;10.884;2023-04-24T15:16:23;13.49;65.05
66722;SHT31;53633;49.932;10.884;2023-04-24T15:18:50;13.52;66.26